Garrett, PA

3:01 PM EST on January 29, 2015 (GMT -0500)
Laurel HighLands | Change Station
CLOSE
Current Station
Personal Weather Station
Location: Rockwood, PA
Elevation: 2000 ft
Nearby Weather Stations
Active Advisory: Winter Weather Advisory

Elev 2000 ft 39.94 °N, 79.13 °W | Updated 30 minutes ago

Snow
Snow
29.3 °F
Feels Like 24 °F
N
4.5
Wind Variable Wind from ESE
Gusts 8.9 mph

Today
High -- | Low -- °F
--% Chance of Precip.
Yesterday
High -- | Low -- °F
Precip. -- in
7:27 AM 5:31 PM
Waxing Gibbous, 76% visible
Pressure 30.04 in
Visibility 5.0 miles
Clouds Scattered Clouds 1200 ft
Mostly Cloudy 1600 ft
Mostly Cloudy 2200 ft
Windchill 24 °F
Dew Point 24 °F
Humidity 81%
Rainfall 0.00 in
Snow Depth Not available.
UV 1 out of 12
Pollen .10 out of 12
Air Quality Not available.
Flu Activity Not available.
METAR KCBE 291948Z AUTO 00000KT 5SM SCT012 BKN016 BKN022 M01/M09 A3004 RMK AO1

More Conditions Fewer Conditions

Pressure 30.04 in
Visibility 5.0 miles
Clouds Scattered Clouds 1200 ft
Mostly Cloudy 1600 ft
Mostly Cloudy 2200 ft
Windchill 24 °F
Dew Point 24 °F
Humidity 81%
Rainfall 0.00 in
Snow Depth Not available.
UV 1 out of 12
Pollen .10 out of 12
Air Quality Not available.
Flu Activity Not available.
METAR KCBE 291948Z AUTO 00000KT 5SM SCT012 BKN016 BKN022 M01/M09 A3004 RMK AO1

More Conditions Fewer Conditions

Nowcast | as of 2:01 PM EST on January 29, 2015

Bands of snow...some heavy...will continue to advance eastward across central Pennsylvania this afternoon. At 155 PM...the leading edge of the steadier snow was near a Coudersport...Philipsburg... Bedford line. Some sleet and freezing rain could mix with the snow at times. Most of the area will see some snow by 430 PM. The bands of snow are moving northeast at 25 mph. Persons traveling this afternoon should allow extra travel time and use caution. Travel conditions could become poor on untreated roads.

×

10-Day Weather Forecast

Almanac

Astronomy

Jan. 29, 2015 Rise Set
Actual Time
Civil Twilight
Nautical Twilight
Astronomical Twilight
Moon
Length of Visible Light
Length of Day
Tomorrow will be .
, % of the Moon is Illuminated

Today's Extremes

State Highs State Lows

Community

WunderPhotos

Upload Photos

1,791,571 photos uploaded!

WunderBlogs® & News

Nearby

Air Quality

  Air Quality AQ Index Pollutant
Not available.

Snow Depth

Station Depth Elevation

Earthquake Activity

City Distance Mag. Time & Date
Minimum magnitude displayed is 2.5.

Coastal Water Temperatures

Place Temperature

Nearby Weather Stations